Time,TemperatureF,DewpointF,PressureIn,WindDirection,WindDirectionDegrees,WindSpeedMPH,WindSpeedGustMPH,Humidity,HourlyPrecipIn,Conditions,Clouds,dailyrainin,SoftwareType,DateUTC
2013-06-30 00:02:00,59.0,57.0,-100.00,NW,310,2.0,4.0,93,0.00,,,-99.99,,2013-06-30 05:02:00,
2013-06-30 00:12:00,60.0,58.0,-100.00,North,0,3.0,7.0,93,0.00,,,-99.99,,2013-06-30 05:12:00,
2013-06-30 00:22:00,60.0,58.0,-100.00,North,0,4.0,6.0,93,0.00,,,-99.99,,2013-06-30 05:22:00,
2013-06-30 00:33:00,60.0,58.0,-100.00,North,0,4.0,6.0,93,0.00,,,-99.99,,2013-06-30 05:33:00,
2013-06-30 00:43:00,60.0,58.0,-100.00,NNE,15,3.0,7.0,93,0.00,,,-99.99,,2013-06-30 05:43:00,
2013-06-30 01:02:00,59.0,57.0,-100.00,North,5,2.0,5.0,93,0.00,,,-99.99,,2013-06-30 06:02:00,
2013-06-30 01:12:00,59.0,57.0,-100.00,North,5,2.0,5.0,93,0.00,,,-99.99,,2013-06-30 06:12:00,
2013-06-30 01:34:00,58.0,56.0,-100.00,North,10,4.0,7.0,93,0.00,,,-99.99,,2013-06-30 06:34:00,
2013-06-30 01:43:00,58.0,56.0,-100.00,North,5,4.0,6.0,92,0.00,,,-99.99,,2013-06-30 06:43:00,
2013-06-30 02:02:00,58.0,56.0,-100.00,North,5,3.0,9.0,92,0.00,,,-99.99,,2013-06-30 07:02:00,
2013-06-30 02:12:00,58.0,56.0,-100.00,North,5,3.0,9.0,92,0.00,,,-99.99,,2013-06-30 07:12:00,
2013-06-30 02:22:00,57.0,55.0,-100.00,NNE,20,2.0,5.0,91,0.00,,,-99.99,,2013-06-30 07:22:00,
2013-06-30 02:32:00,56.0,54.0,-100.00,NNE,30,2.0,4.0,91,0.00,,,-99.99,,2013-06-30 07:32:00,
2013-06-30 02:33:00,57.0,54.0,-100.00,North,10,3.0,5.0,91,0.00,,,-99.99,,2013-06-30 07:33:00,
2013-06-30 02:44:00,57.0,54.0,-100.00,North,10,3.0,5.0,91,0.00,,,-99.99,,2013-06-30 07:44:00,
2013-06-30 02:53:00,56.0,54.0,-100.00,NNE,30,2.0,4.0,91,0.00,,,-99.99,,2013-06-30 07:53:00,
2013-06-30 03:02:00,56.0,54.0,-100.00,NNE,30,2.0,4.0,91,0.00,,,-99.99,,2013-06-30 08:02:00,
2013-06-30 03:12:00,56.0,54.0,-100.00,NNE,30,2.0,4.0,91,0.00,,,-99.99,,2013-06-30 08:12:00,
2013-06-30 03:22:00,56.0,54.0,-100.00,NNE,30,2.0,4.0,91,0.00,,,-99.99,,2013-06-30 08:22:00,
2013-06-30 04:12:00,54.0,53.0,-100.00,NNE,15,3.0,5.0,93,0.00,,,-99.99,,2013-06-30 09:12:00,
2013-06-30 04:23:00,54.0,52.0,-100.00,North,5,4.0,6.0,93,0.00,,,-99.99,,2013-06-30 09:23:00,
2013-06-30 04:34:00,54.0,52.0,-100.00,North,5,4.0,6.0,93,0.00,,,-99.99,,2013-06-30 09:34:00,
2013-06-30 04:43:00,54.0,52.0,-100.00,NNE,20,4.0,7.0,93,0.00,,,-99.99,,2013-06-30 09:43:00,
2013-06-30 05:11:00,54.0,52.0,-100.00,North,10,5.0,7.0,92,0.00,,,-99.99,,2013-06-30 10:11:00,
2013-06-30 05:22:00,54.0,52.0,-100.00,North,10,5.0,7.0,92,0.00,,,-99.99,,2013-06-30 10:22:00,
2013-06-30 05:33:00,54.0,52.0,-100.00,NNE,20,4.0,7.0,91,0.00,,,-99.99,,2013-06-30 10:33:00,
2013-06-30 05:42:00,54.0,51.0,-100.00,NNE,20,4.0,6.0,91,0.00,,,-99.99,,2013-06-30 10:42:00,
2013-06-30 05:53:00,54.0,51.0,-100.00,NNE,20,4.0,6.0,91,0.00,,,-99.99,,2013-06-30 10:53:00,
2013-06-30 06:02:00,53.0,51.0,-100.00,North,5,3.0,6.0,91,0.00,,,-99.99,,2013-06-30 11:02:00,
2013-06-30 06:11:00,53.0,51.0,-100.00,North,5,3.0,6.0,91,0.00,,,-99.99,,2013-06-30 11:11:00,
2013-06-30 06:22:00,53.0,51.0,-100.00,North,5,4.0,6.0,91,0.00,,,-99.99,,2013-06-30 11:22:00,
2013-06-30 06:33:00,54.0,51.0,-100.00,NNE,20,2.0,6.0,91,0.00,,,-99.99,,2013-06-30 11:33:00,
2013-06-30 06:43:00,54.0,51.0,-100.00,NNE,25,4.0,6.0,90,0.00,,,-99.99,,2013-06-30 11:43:00,
2013-06-30 07:02:00,54.0,51.0,-100.00,North,10,4.0,6.0,89,0.00,,,-99.99,,2013-06-30 12:02:00,
2013-06-30 07:11:00,54.0,51.0,-100.00,NNE,20,5.0,7.0,88,0.00,,,-99.99,,2013-06-30 12:11:00,
2013-06-30 07:24:00,54.0,51.0,-100.00,NNE,20,5.0,7.0,88,0.00,,,-99.99,,2013-06-30 12:24:00,
2013-06-30 07:33:00,55.0,51.0,-100.00,NNE,20,4.0,7.0,85,0.00,,,-99.99,,2013-06-30 12:33:00,
2013-06-30 07:43:00,56.0,51.0,-100.00,NNE,20,4.0,7.0,84,0.00,,,-99.99,,2013-06-30 12:43:00,
2013-06-30 07:52:00,56.0,51.0,-100.00,North,10,6.0,9.0,81,0.00,,,-99.99,,2013-06-30 12:52:00,
2013-06-30 08:02:00,56.0,51.0,-100.00,North,10,6.0,9.0,81,0.00,,,-99.99,,2013-06-30 13:02:00,
2013-06-30 08:12:00,56.0,51.0,-100.00,North,10,6.0,9.0,81,0.00,,,-99.99,,2013-06-30 13:12:00,
2013-06-30 08:22:00,58.0,50.0,-100.00,NNE,25,6.0,11.0,75,0.00,,,-99.99,,2013-06-30 13:22:00,
2013-06-30 08:34:00,58.0,50.0,-100.00,NNE,25,6.0,11.0,75,0.00,,,-99.99,,2013-06-30 13:34:00,
2013-06-30 08:44:00,58.0,50.0,-100.00,NNE,25,6.0,11.0,75,0.00,,,-99.99,,2013-06-30 13:44:00,
2013-06-30 09:02:00,60.0,50.0,-100.00,NNE,20,9.0,11.0,68,0.00,,,-99.99,,2013-06-30 14:02:00,
2013-06-30 09:22:00,61.0,50.0,-100.00,NNE,30,8.0,12.0,65,0.00,,,-99.99,,2013-06-30 14:22:00,
2013-06-30 09:33:00,62.0,50.0,-100.00,NNE,20,7.0,12.0,64,0.00,,,-99.99,,2013-06-30 14:33:00,
2013-06-30 09:44:00,62.0,50.0,-100.00,NNE,20,7.0,12.0,64,0.00,,,-99.99,,2013-06-30 14:44:00,
2013-06-30 10:02:00,63.0,50.0,-100.00,NNE,25,9.0,15.0,62,0.00,,,-99.99,,2013-06-30 15:02:00,
2013-06-30 10:23:00,63.0,51.0,-100.00,NE,40,6.0,16.0,62,0.00,,,-99.99,,2013-06-30 15:23:00,
2013-06-30 10:34:00,65.0,51.0,-100.00,NNE,30,9.0,12.0,61,0.00,,,-99.99,,2013-06-30 15:34:00,
2013-06-30 10:44:00,66.0,51.0,-100.00,NE,40,11.0,15.0,59,0.00,,,-99.99,,2013-06-30 15:44:00,
2013-06-30 10:53:00,67.0,52.0,-100.00,NNE,20,8.0,16.0,59,0.00,,,-99.99,,2013-06-30 15:53:00,
2013-06-30 11:01:00,67.0,51.0,-100.00,NNE,20,10.0,16.0,56,0.00,,,-99.99,,2013-06-30 16:01:00,
2013-06-30 11:11:00,68.0,50.0,-100.00,NE,35,12.0,17.0,52,0.00,,,-99.99,,2013-06-30 16:11:00,
2013-06-30 11:21:00,68.0,51.0,-100.00,NE,35,9.0,17.0,53,0.00,,,-99.99,,2013-06-30 16:21:00,
2013-06-30 11:34:00,68.0,51.0,-100.00,NE,35,9.0,17.0,53,0.00,,,-99.99,,2013-06-30 16:34:00,
2013-06-30 11:44:00,69.0,50.0,-100.00,NNE,30,11.0,17.0,51,0.00,,,-99.99,,2013-06-30 16:44:00,
2013-06-30 11:53:00,70.0,51.0,-100.00,NE,40,9.0,15.0,50,0.00,,,-99.99,,2013-06-30 16:53:00,
2013-06-30 12:02:00,69.0,49.0,-100.00,NE,40,11.0,16.0,48,0.00,,,-99.99,,2013-06-30 17:02:00,
2013-06-30 12:11:00,70.0,48.0,-100.00,NE,40,14.0,19.0,46,0.00,,,-99.99,,2013-06-30 17:11:00,
2013-06-30 12:23:00,71.0,50.0,-100.00,NNE,25,10.0,16.0,48,0.00,,,-99.99,,2013-06-30 17:23:00,
2013-06-30 12:34:00,71.0,49.0,-100.00,NNE,25,9.0,18.0,44,0.00,,,-99.99,,2013-06-30 17:34:00,
2013-06-30 12:43:00,71.0,48.0,-100.00,NNE,25,11.0,16.0,43,0.00,,,-99.99,,2013-06-30 17:43:00,
2013-06-30 12:52:00,71.0,48.0,-100.00,NE,45,12.0,17.0,43,0.00,,,-99.99,,2013-06-30 17:52:00,
2013-06-30 13:02:00,72.0,48.0,-100.00,NE,35,9.0,14.0,43,0.00,,,-99.99,,2013-06-30 18:02:00,
2013-06-30 13:12:00,72.0,47.0,-100.00,NNE,30,9.0,15.0,41,0.00,,,-99.99,,2013-06-30 18:12:00,
2013-06-30 13:22:00,73.0,48.0,-100.00,NE,35,9.0,15.0,41,0.00,,,-99.99,,2013-06-30 18:22:00,
2013-06-30 13:34:00,73.0,47.0,-100.00,North,5,11.0,16.0,39,0.00,,,-99.99,,2013-06-30 18:34:00,
2013-06-30 13:43:00,73.0,46.0,-100.00,NE,35,12.0,18.0,37,0.00,,,-99.99,,2013-06-30 18:43:00,
2013-06-30 13:53:00,73.0,45.0,-100.00,NNE,25,10.0,17.0,36,0.00,,,-99.99,,2013-06-30 18:53:00,
2013-06-30 14:01:00,74.0,47.0,-100.00,NE,40,9.0,14.0,37,0.00,,,-99.99,,2013-06-30 19:01:00,
2013-06-30 14:11:00,74.0,44.0,-100.00,NE,45,13.0,20.0,34,0.00,,,-99.99,,2013-06-30 19:11:00,
2013-06-30 14:22:00,74.0,45.0,-100.00,NE,45,10.0,20.0,35,0.00,,,-99.99,,2013-06-30 19:22:00,
2013-06-30 14:33:00,74.0,44.0,-100.00,NE,55,8.0,17.0,34,0.00,,,-99.99,,2013-06-30 19:33:00,
2013-06-30 14:43:00,75.0,46.0,-100.00,North,10,10.0,15.0,36,0.00,,,-99.99,,2013-06-30 19:43:00,
2013-06-30 14:53:00,75.0,45.0,-100.00,NNE,25,8.0,16.0,33,0.00,,,-99.99,,2013-06-30 19:53:00,
2013-06-30 15:02:00,76.0,45.0,-100.00,NNE,25,10.0,16.0,33,0.00,,,-99.99,,2013-06-30 20:02:00,
2013-06-30 15:11:00,76.0,47.0,-100.00,North,5,12.0,19.0,35,0.00,,,-99.99,,2013-06-30 20:11:00,
2013-06-30 15:22:00,76.0,45.0,-100.00,North,10,11.0,20.0,34,0.00,,,-99.99,,2013-06-30 20:22:00,
2013-06-30 15:34:00,76.0,45.0,-100.00,North,10,11.0,20.0,34,0.00,,,-99.99,,2013-06-30 20:34:00,
2013-06-30 15:42:00,76.0,47.0,-100.00,NE,45,6.0,17.0,36,0.00,,,-99.99,,2013-06-30 20:42:00,
2013-06-30 15:52:00,76.0,48.0,-100.00,NNE,15,9.0,14.0,37,0.00,,,-99.99,,2013-06-30 20:52:00,
2013-06-30 16:01:00,76.0,48.0,-100.00,NE,40,12.0,17.0,36,0.00,,,-99.99,,2013-06-30 21:01:00,
2013-06-30 16:11:00,76.0,49.0,-100.00,NE,40,9.0,17.0,38,0.00,,,-99.99,,2013-06-30 21:11:00,
2013-06-30 16:22:00,76.0,49.0,-100.00,NNE,15,7.0,13.0,38,0.00,,,-99.99,,2013-06-30 21:22:00,
2013-06-30 16:34:00,77.0,51.0,-100.00,North,0,9.0,16.0,40,0.00,,,-99.99,,2013-06-30 21:34:00,
2013-06-30 16:43:00,77.0,50.0,-100.00,North,0,8.0,17.0,39,0.00,,,-99.99,,2013-06-30 21:43:00,
2013-06-30 17:01:00,77.0,50.0,-100.00,NE,35,9.0,12.0,38,0.00,,,-99.99,,2013-06-30 22:01:00,
2013-06-30 17:11:00,76.0,50.0,-100.00,NNE,15,6.0,22.0,39,0.00,,,-99.99,,2013-06-30 22:11:00,
2013-06-30 17:34:00,76.0,50.0,-100.00,NE,45,11.0,17.0,40,0.00,,,-99.99,,2013-06-30 22:34:00,
2013-06-30 17:43:00,75.0,50.0,-100.00,NE,40,6.0,14.0,40,0.04,,,-99.99,,2013-06-30 22:43:00,
2013-06-30 18:02:00,75.0,49.0,-100.00,North,10,12.0,17.0,39,0.00,,,-99.99,,2013-06-30 23:02:00,
2013-06-30 18:11:00,75.0,48.0,-100.00,North,10,9.0,14.0,38,0.00,,,-99.99,,2013-06-30 23:11:00,
2013-06-30 18:22:00,75.0,48.0,-100.00,NNE,25,12.0,16.0,38,0.00,,,-99.99,,2013-06-30 23:22:00,
2013-06-30 18:33:00,75.0,48.0,-100.00,NNE,30,10.0,16.0,38,0.00,,,-99.99,,2013-06-30 23:33:00,
2013-06-30 18:43:00,75.0,47.0,-100.00,NNE,15,9.0,17.0,37,0.00,,,-99.99,,2013-06-30 23:43:00,
2013-06-30 19:01:00,75.0,46.0,-100.00,NE,40,11.0,15.0,35,0.00,,,-99.99,,2013-07-01 00:01:00,
2013-06-30 19:22:00,75.0,47.0,-100.00,NNE,25,9.0,14.0,37,0.00,,,-99.99,,2013-07-01 00:22:00,
2013-06-30 19:33:00,75.0,47.0,-100.00,NE,35,8.0,14.0,37,0.00,,,-99.99,,2013-07-01 00:33:00,
2013-06-30 19:42:00,75.0,47.0,-100.00,NNE,30,7.0,15.0,37,0.00,,,-99.99,,2013-07-01 00:42:00,
2013-06-30 19:52:00,74.0,47.0,-100.00,NNE,30,9.0,13.0,37,0.00,,,-99.99,,2013-07-01 00:52:00,
2013-06-30 20:01:00,74.0,48.0,-100.00,NNE,25,6.0,11.0,39,0.00,,,-99.99,,2013-07-01 01:01:00,
2013-06-30 20:11:00,73.0,48.0,-100.00,NNE,15,5.0,9.0,40,0.00,,,-99.99,,2013-07-01 01:11:00,
2013-06-30 20:22:00,73.0,49.0,-100.00,NNE,25,4.0,7.0,42,0.00,,,-99.99,,2013-07-01 01:22:00,
2013-06-30 20:33:00,72.0,49.0,-100.00,NNE,30,5.0,7.0,42,0.00,,,-99.99,,2013-07-01 01:33:00,
2013-06-30 20:42:00,72.0,49.0,-100.00,NNE,30,5.0,7.0,42,0.00,,,-99.99,,2013-07-01 01:42:00,
2013-06-30 20:52:00,71.0,50.0,-100.00,NNE,20,3.0,5.0,47,0.00,,,-99.99,,2013-07-01 01:52:00,
2013-06-30 21:02:00,69.0,51.0,-100.00,North,10,2.0,5.0,51,0.00,,,-99.99,,2013-07-01 02:02:00,
2013-06-30 21:11:00,68.0,50.0,-100.00,NNE,15,2.0,4.0,53,0.00,,,-99.99,,2013-07-01 02:11:00,
2013-06-30 21:22:00,67.0,51.0,-100.00,North,10,2.0,6.0,56,0.00,,,-99.99,,2013-07-01 02:22:00,
2013-06-30 22:11:00,63.0,54.0,-100.00,North,0,2.0,4.0,72,0.00,,,-99.99,,2013-07-01 03:11:00,
2013-06-30 23:43:00,56.0,55.0,-100.00,West,265,0.0,0.0,93,0.00,,,-99.99,,2013-07-01 04:43:00,